Airfield :
LOGIN :

Register | Disclaimer

   EN    FR    IT 

 










Legend :    VFR   Marginal VFR   IFR   Intensive IFR   Very Intensive IFR
Visi :
Ceiling :
>= 8 km
>= 3000ft
5 to 8 km
1000 to 3000 ft
1500m to 5 km
500 to 1000 ft
800 to 1500m
200 to 500 ft
< 800m
< 200 ft
Symbols :   Thunderstorms  Fog  Heavy snow  Heavy precipitations  Wind > 20 kt
SIGMETs :     Misc.  Thunderstorms  Icing  Turbulence  Mountain Waves  Volcanic Ashes







- Airport Elevation : 14 ft
- IATA code : BRE


EDDW - Bremen Neuenland

CURRENT METAR :
  • 160450Z 15003KT CAVOK 02/M02 Q1024 NOSIG

EXPIRED METARs :
  • 160420Z VRB01KT CAVOK 02/M01 Q1024 NOSIG
  • 160350Z 15002KT CAVOK 02/M01 Q1024 NOSIG
  • 160320Z 14003KT CAVOK 01/M01 Q1024 NOSIG
  • 160250Z 13004KT CAVOK 02/M01 Q1025 NOSIG
  • 160220Z 13003KT CAVOK 02/M01 Q1025 NOSIG

TAF TAF EDDW
Valid from the 16 at 00:00 until the 17 at 00:00 UTC


152300Z 1600/1624 18004KT CAVOK
BECMG 1608/1610 23009KT
BECMG 1615/1617 22004KT
PROB30
TEMPO 1622/1624 BKN007
No reported NOTAMs for that airfield.



MET'MAP, your aeronautical weather chart ! - Copyright ORBIFLY December 2007 - Disclaimer

ORBIFLY MET'MAP TEAM :

Programming & Development : Alexandra Zaïnal
Concept & Development : Baudouin d'Aumeries
Co-Development & Prog : Marc-Olivier Méhu
Technical & hardware support : Manuel Goepfert

Contact : metmap@orbifly.com




SOURCES & CREDITS :

   NOAA